sensor_id;sensor_type;location;lat;lon;timestamp;P1;durP1;ratioP1;P2;durP2;ratioP2
60306;SDS011;46155;52.364;6.580;2023-07-20T03:02:29;16.10;;;15.00;;
60306;SDS011;46155;52.364;6.580;2023-07-20T03:04:55;17.13;;;16.10;;
60306;SDS011;46155;52.364;6.580;2023-07-20T03:07:22;18.13;;;17.03;;
60306;SDS011;46155;52.364;6.580;2023-07-20T03:09:47;16.93;;;15.97;;
60306;SDS011;46155;52.364;6.580;2023-07-20T03:12:13;16.77;;;15.87;;
60306;SDS011;46155;52.364;6.580;2023-07-20T03:14:38;17.90;;;16.70;;
60306;SDS011;46155;52.364;6.580;2023-07-20T03:17:04;19.30;;;18.10;;
60306;SDS011;46155;52.364;6.580;2023-07-20T03:19:29;19.47;;;18.27;;
60306;SDS011;46155;52.364;6.580;2023-07-20T03:21:55;18.37;;;17.17;;
60306;SDS011;46155;52.364;6.580;2023-07-20T03:24:20;20.13;;;19.00;;
60306;SDS011;46155;52.364;6.580;2023-07-20T03:26:46;19.77;;;18.57;;
60306;SDS011;46155;52.364;6.580;2023-07-20T03:29:11;19.20;;;18.00;;
60306;SDS011;46155;52.364;6.580;2023-07-20T03:31:36;20.07;;;18.87;;
60306;SDS011;46155;52.364;6.580;2023-07-20T03:34:02;18.87;;;17.77;;
60306;SDS011;46155;52.364;6.580;2023-07-20T03:36:27;20.90;;;19.50;;
60306;SDS011;46155;52.364;6.580;2023-07-20T03:38:52;19.27;;;17.93;;
60306;SDS011;46155;52.364;6.580;2023-07-20T03:41:18;18.73;;;17.43;;
60306;SDS011;46155;52.364;6.580;2023-07-20T03:43:44;18.07;;;16.97;;
60306;SDS011;46155;52.364;6.580;2023-07-20T03:46:10;18.30;;;16.87;;
60306;SDS011;46155;52.364;6.580;2023-07-20T03:48:35;18.40;;;17.23;;
60306;SDS011;46155;52.364;6.580;2023-07-20T03:51:01;15.70;;;14.70;;
60306;SDS011;46155;52.364;6.580;2023-07-20T03:53:26;16.00;;;15.00;;
60306;SDS011;46155;52.364;6.580;2023-07-20T03:55:52;14.67;;;13.63;;
60306;SDS011;46155;52.364;6.580;2023-07-20T03:58:18;15.30;;;14.23;;
60306;SDS011;46155;52.364;6.580;2023-07-20T04:00:48;13.20;;;12.37;;
60306;SDS011;46155;52.364;6.580;2023-07-20T04:03:17;15.47;;;14.37;;
60306;SDS011;46155;52.364;6.580;2023-07-20T04:05:44;16.27;;;15.27;;
60306;SDS011;46155;52.364;6.580;2023-07-20T04:08:10;16.00;;;14.80;;
60306;SDS011;46155;52.364;6.580;2023-07-20T04:10:36;15.57;;;14.57;;
60306;SDS011;46155;52.364;6.580;2023-07-20T04:13:02;14.50;;;13.70;;
60306;SDS011;46155;52.364;6.580;2023-07-20T04:15:27;17.17;;;16.10;;
60306;SDS011;46155;52.364;6.580;2023-07-20T04:17:52;14.43;;;13.63;;
60306;SDS011;46155;52.364;6.580;2023-07-20T04:20:18;15.43;;;14.60;;
60306;SDS011;46155;52.364;6.580;2023-07-20T04:22:44;14.27;;;13.47;;
60306;SDS011;46155;52.364;6.580;2023-07-20T04:25:09;14.60;;;13.77;;
60306;SDS011;46155;52.364;6.580;2023-07-20T04:27:35;14.67;;;13.77;;
60306;SDS011;46155;52.364;6.580;2023-07-20T04:30:01;14.47;;;13.67;;
60306;SDS011;46155;52.364;6.580;2023-07-20T04:32:27;14.23;;;13.43;;
60306;SDS011;46155;52.364;6.580;2023-07-20T04:34:52;13.27;;;12.47;;
60306;SDS011;46155;52.364;6.580;2023-07-20T04:37:18;13.60;;;12.80;;
60306;SDS011;46155;52.364;6.580;2023-07-20T04:39:43;13.03;;;12.30;;
60306;SDS011;46155;52.364;6.580;2023-07-20T04:42:08;15.20;;;13.80;;
60306;SDS011;46155;52.364;6.580;2023-07-20T04:44:33;15.33;;;14.40;;
60306;SDS011;46155;52.364;6.580;2023-07-20T04:46:59;15.00;;;14.07;;
60306;SDS011;46155;52.364;6.580;2023-07-20T04:49:24;13.97;;;13.17;;
60306;SDS011;46155;52.364;6.580;2023-07-20T04:51:50;13.20;;;12.40;;
60306;SDS011;46155;52.364;6.580;2023-07-20T04:54:16;13.57;;;12.77;;
60306;SDS011;46155;52.364;6.580;2023-07-20T04:56:42;14.10;;;13.20;;
60306;SDS011;46155;52.364;6.580;2023-07-20T04:59:07;14.17;;;13.17;;
60306;SDS011;46155;52.364;6.580;2023-07-20T05:01:32;14.23;;;13.43;;
60306;SDS011;46155;52.364;6.580;2023-07-20T05:03:58;14.50;;;13.50;;
60306;SDS011;46155;52.364;6.580;2023-07-20T05:06:24;14.37;;;13.53;;
60306;SDS011;46155;52.364;6.580;2023-07-20T05:08:49;12.93;;;12.23;;
60306;SDS011;46155;52.364;6.580;2023-07-20T05:11:15;13.07;;;12.27;;
60306;SDS011;46155;52.364;6.580;2023-07-20T05:13:40;12.83;;;12.13;;
60306;SDS011;46155;52.364;6.580;2023-07-20T05:16:06;14.50;;;13.50;;
60306;SDS011;46155;52.364;6.580;2023-07-20T05:18:31;13.47;;;12.50;;
60306;SDS011;46155;52.364;6.580;2023-07-20T05:20:57;13.10;;;12.30;;
60306;SDS011;46155;52.364;6.580;2023-07-20T05:23:22;12.37;;;11.67;;
60306;SDS011;46155;52.364;6.580;2023-07-20T05:25:53;13.00;;;12.20;;
60306;SDS011;46155;52.364;6.580;2023-07-20T05:28:26;13.27;;;12.40;;
60306;SDS011;46155;52.364;6.580;2023-07-20T05:30:52;14.77;;;13.80;;
60306;SDS011;46155;52.364;6.580;2023-07-20T05:33:20;14.37;;;13.47;;
60306;SDS011;46155;52.364;6.580;2023-07-20T05:35:47;14.17;;;13.27;;
60306;SDS011;46155;52.364;6.580;2023-07-20T05:38:12;15.63;;;14.60;;
60306;SDS011;46155;52.364;6.580;2023-07-20T05:40:39;15.17;;;14.20;;
60306;SDS011;46155;52.364;6.580;2023-07-20T05:43:05;15.90;;;14.80;;
60306;SDS011;46155;52.364;6.580;2023-07-20T05:45:31;16.07;;;14.80;;
60306;SDS011;46155;52.364;6.580;2023-07-20T05:47:56;16.07;;;14.73;;
60306;SDS011;46155;52.364;6.580;2023-07-20T05:50:21;16.13;;;14.87;;
60306;SDS011;46155;52.364;6.580;2023-07-20T05:52:47;15.37;;;14.37;;
60306;SDS011;46155;52.364;6.580;2023-07-20T05:55:13;15.17;;;14.27;;
60306;SDS011;46155;52.364;6.580;2023-07-20T05:57:38;15.27;;;14.10;;
60306;SDS011;46155;52.364;6.580;2023-07-20T06:00:07;14.57;;;13.47;;
60306;SDS011;46155;52.364;6.580;2023-07-20T06:02:33;14.67;;;13.60;;
60306;SDS011;46155;52.364;6.580;2023-07-20T06:04:58;13.23;;;12.10;;
60306;SDS011;46155;52.364;6.580;2023-07-20T06:07:23;13.37;;;12.47;;
60306;SDS011;46155;52.364;6.580;2023-07-20T06:09:49;12.77;;;11.77;;
60306;SDS011;46155;52.364;6.580;2023-07-20T06:12:14;13.63;;;12.53;;
60306;SDS011;46155;52.364;6.580;2023-07-20T06:14:40;12.87;;;11.87;;
60306;SDS011;46155;52.364;6.580;2023-07-20T06:17:05;11.23;;;10.50;;
60306;SDS011;46155;52.364;6.580;2023-07-20T06:19:31;10.10;;;9.40;;
60306;SDS011;46155;52.364;6.580;2023-07-20T06:21:56;10.30;;;9.70;;
60306;SDS011;46155;52.364;6.580;2023-07-20T06:24:21;11.83;;;9.80;;
60306;SDS011;46155;52.364;6.580;2023-07-20T06:26:47;10.03;;;9.07;;
60306;SDS011;46155;52.364;6.580;2023-07-20T06:29:12;10.23;;;9.27;;
60306;SDS011;46155;52.364;6.580;2023-07-20T06:31:37;9.27;;;8.67;;
60306;SDS011;46155;52.364;6.580;2023-07-20T06:34:03;10.37;;;9.67;;
60306;SDS011;46155;52.364;6.580;2023-07-20T06:36:28;11.47;;;9.57;;
60306;SDS011;46155;52.364;6.580;2023-07-20T06:38:54;10.20;;;9.50;;
60306;SDS011;46155;52.364;6.580;2023-07-20T06:41:20;9.10;;;8.50;;
60306;SDS011;46155;52.364;6.580;2023-07-20T06:43:46;10.17;;;9.53;;
60306;SDS011;46155;52.364;6.580;2023-07-20T06:46:12;9.20;;;8.70;;
60306;SDS011;46155;52.364;6.580;2023-07-20T06:48:37;10.10;;;9.50;;
60306;SDS011;46155;52.364;6.580;2023-07-20T06:51:03;9.93;;;9.33;;
60306;SDS011;46155;52.364;6.580;2023-07-20T06:53:28;8.83;;;7.97;;
60306;SDS011;46155;52.364;6.580;2023-07-20T06:55:54;8.37;;;7.87;;
60306;SDS011;46155;52.364;6.580;2023-07-20T06:58:22;8.60;;;8.00;;
60306;SDS011;46155;52.364;6.580;2023-07-20T07:00:48;7.00;;;6.57;;
60306;SDS011;46155;52.364;6.580;2023-07-20T07:03:13;7.70;;;7.20;;
60306;SDS011;46155;52.364;6.580;2023-07-20T07:05:39;10.50;;;7.17;;
60306;SDS011;46155;52.364;6.580;2023-07-20T07:08:04;7.87;;;7.37;;
60306;SDS011;46155;52.364;6.580;2023-07-20T07:10:30;8.10;;;7.33;;
60306;SDS011;46155;52.364;6.580;2023-07-20T07:12:55;6.67;;;6.27;;
60306;SDS011;46155;52.364;6.580;2023-07-20T07:15:20;6.57;;;6.27;;
60306;SDS011;46155;52.364;6.580;2023-07-20T07:17:46;7.57;;;7.10;;
60306;SDS011;46155;52.364;6.580;2023-07-20T07:20:11;6.77;;;6.37;;
60306;SDS011;46155;52.364;6.580;2023-07-20T07:22:37;6.20;;;5.80;;
60306;SDS011;46155;52.364;6.580;2023-07-20T07:25:03;7.07;;;6.50;;
60306;SDS011;46155;52.364;6.580;2023-07-20T07:27:28;6.33;;;5.93;;
60306;SDS011;46155;52.364;6.580;2023-07-20T07:29:54;7.03;;;6.07;;
60306;SDS011;46155;52.364;6.580;2023-07-20T07:32:20;6.53;;;6.00;;
60306;SDS011;46155;52.364;6.580;2023-07-20T07:34:46;6.40;;;5.90;;
60306;SDS011;46155;52.364;6.580;2023-07-20T07:37:12;5.90;;;5.40;;
60306;SDS011;46155;52.364;6.580;2023-07-20T07:39:38;5.60;;;5.30;;
60306;SDS011;46155;52.364;6.580;2023-07-20T07:42:03;5.67;;;5.20;;
60306;SDS011;46155;52.364;6.580;2023-07-20T07:44:29;5.70;;;5.30;;
60306;SDS011;46155;52.364;6.580;2023-07-20T07:46:54;7.20;;;5.70;;
60306;SDS011;46155;52.364;6.580;2023-07-20T07:49:19;5.80;;;5.40;;
60306;SDS011;46155;52.364;6.580;2023-07-20T07:51:45;5.30;;;5.10;;
60306;SDS011;46155;52.364;6.580;2023-07-20T07:54:11;5.27;;;4.87;;
60306;SDS011;46155;52.364;6.580;2023-07-20T07:56:36;6.40;;;6.00;;
60306;SDS011;46155;52.364;6.580;2023-07-20T07:59:01;5.97;;;5.60;;
60306;SDS011;46155;52.364;6.580;2023-07-20T08:01:28;5.33;;;5.03;;
60306;SDS011;46155;52.364;6.580;2023-07-20T08:03:53;5.60;;;5.30;;
60306;SDS011;46155;52.364;6.580;2023-07-20T08:06:18;6.00;;;5.70;;
60306;SDS011;46155;52.364;6.580;2023-07-20T08:08:44;5.77;;;5.47;;
60306;SDS011;46155;52.364;6.580;2023-07-20T08:11:09;5.37;;;5.17;;
60306;SDS011;46155;52.364;6.580;2023-07-20T08:13:35;5.57;;;5.10;;
60306;SDS011;46155;52.364;6.580;2023-07-20T08:16:01;5.87;;;5.30;;
60306;SDS011;46155;52.364;6.580;2023-07-20T08:18:29;5.33;;;5.03;;
60306;SDS011;46155;52.364;6.580;2023-07-20T08:20:56;5.83;;;5.10;;
60306;SDS011;46155;52.364;6.580;2023-07-20T08:23:21;5.30;;;4.80;;
60306;SDS011;46155;52.364;6.580;2023-07-20T08:25:46;5.50;;;5.20;;
60306;SDS011;46155;52.364;6.580;2023-07-20T08:28:13;5.27;;;4.97;;
60306;SDS011;46155;52.364;6.580;2023-07-20T08:30:43;6.33;;;5.83;;
60306;SDS011;46155;52.364;6.580;2023-07-20T08:33:09;5.47;;;5.10;;
60306;SDS011;46155;52.364;6.580;2023-07-20T08:35:36;5.50;;;5.20;;
60306;SDS011;46155;52.364;6.580;2023-07-20T08:38:01;5.30;;;5.00;;
60306;SDS011;46155;52.364;6.580;2023-07-20T08:40:27;5.57;;;5.27;;
60306;SDS011;46155;52.364;6.580;2023-07-20T08:42:53;5.30;;;5.10;;
60306;SDS011;46155;52.364;6.580;2023-07-20T08:45:20;5.30;;;5.00;;
60306;SDS011;46155;52.364;6.580;2023-07-20T08:47:47;5.23;;;5.03;;
60306;SDS011;46155;52.364;6.580;2023-07-20T08:50:14;5.60;;;5.30;;
60306;SDS011;46155;52.364;6.580;2023-07-20T08:52:41;5.67;;;5.37;;
60306;SDS011;46155;52.364;6.580;2023-07-20T08:55:06;5.23;;;4.93;;
60306;SDS011;46155;52.364;6.580;2023-07-20T08:57:32;5.00;;;4.70;;
60306;SDS011;46155;52.364;6.580;2023-07-20T08:59:59;5.07;;;4.67;;
60306;SDS011;46155;52.364;6.580;2023-07-20T09:02:29;5.37;;;5.07;;
60306;SDS011;46155;52.364;6.580;2023-07-20T09:04:58;5.10;;;4.90;;
60306;SDS011;46155;52.364;6.580;2023-07-20T09:07:23;6.00;;;5.20;;
60306;SDS011;46155;52.364;6.580;2023-07-20T09:09:49;6.03;;;5.67;;
60306;SDS011;46155;52.364;6.580;2023-07-20T09:12:15;5.63;;;5.20;;
60306;SDS011;46155;52.364;6.580;2023-07-20T09:14:42;5.87;;;5.57;;
60306;SDS011;46155;52.364;6.580;2023-07-20T09:17:12;6.03;;;5.53;;
60306;SDS011;46155;52.364;6.580;2023-07-20T09:19:39;5.80;;;5.50;;
60306;SDS011;46155;52.364;6.580;2023-07-20T09:22:10;5.23;;;5.03;;
60306;SDS011;46155;52.364;6.580;2023-07-20T09:24:35;5.63;;;5.23;;
60306;SDS011;46155;52.364;6.580;2023-07-20T09:27:01;5.17;;;4.97;;
60306;SDS011;46155;52.364;6.580;2023-07-20T09:29:28;5.30;;;5.00;;
60306;SDS011;46155;52.364;6.580;2023-07-20T09:32:13;6.10;;;5.70;;
60306;SDS011;46155;52.364;6.580;2023-07-20T09:34:44;7.10;;;5.43;;
60306;SDS011;46155;52.364;6.580;2023-07-20T09:37:09;5.33;;;5.03;;
60306;SDS011;46155;52.364;6.580;2023-07-20T09:39:42;5.67;;;5.47;;
60306;SDS011;46155;52.364;6.580;2023-07-20T09:42:11;5.23;;;5.03;;
60306;SDS011;46155;52.364;6.580;2023-07-20T09:44:38;5.73;;;5.43;;
60306;SDS011;46155;52.364;6.580;2023-07-20T09:47:04;5.30;;;4.93;;
60306;SDS011;46155;52.364;6.580;2023-07-20T09:49:29;5.50;;;5.20;;
60306;SDS011;46155;52.364;6.580;2023-07-20T09:51:55;5.70;;;5.40;;
60306;SDS011;46155;52.364;6.580;2023-07-20T09:54:22;5.83;;;5.43;;
60306;SDS011;46155;52.364;6.580;2023-07-20T09:56:49;5.80;;;5.40;;
60306;SDS011;46155;52.364;6.580;2023-07-20T09:59:17;5.93;;;5.40;;
60306;SDS011;46155;52.364;6.580;2023-07-20T10:01:42;6.10;;;5.77;;
60306;SDS011;46155;52.364;6.580;2023-07-20T10:04:10;5.53;;;5.23;;
60306;SDS011;46155;52.364;6.580;2023-07-20T10:06:37;5.77;;;5.47;;
60306;SDS011;46155;52.364;6.580;2023-07-20T10:09:07;6.20;;;5.60;;
60306;SDS011;46155;52.364;6.580;2023-07-20T10:11:35;5.73;;;5.43;;
60306;SDS011;46155;52.364;6.580;2023-07-20T10:14:04;5.63;;;5.40;;
60306;SDS011;46155;52.364;6.580;2023-07-20T10:16:33;5.60;;;5.30;;
60306;SDS011;46155;52.364;6.580;2023-07-20T10:21:37;5.23;;;5.03;;
60306;SDS011;46155;52.364;6.580;2023-07-20T10:24:12;5.20;;;4.90;;
60306;SDS011;46155;52.364;6.580;2023-07-20T10:26:38;5.30;;;5.00;;
60306;SDS011;46155;52.364;6.580;2023-07-20T10:29:04;5.13;;;4.83;;
60306;SDS011;46155;52.364;6.580;2023-07-20T10:31:30;5.27;;;4.93;;
60306;SDS011;46155;52.364;6.580;2023-07-20T10:33:57;5.13;;;4.83;;
60306;SDS011;46155;52.364;6.580;2023-07-20T10:36:26;4.70;;;4.50;;
60306;SDS011;46155;52.364;6.580;2023-07-20T10:38:56;5.43;;;5.07;;
60306;SDS011;46155;52.364;6.580;2023-07-20T10:41:35;5.50;;;5.00;;
60306;SDS011;46155;52.364;6.580;2023-07-20T10:44:06;5.17;;;4.87;;
60306;SDS011;46155;52.364;6.580;2023-07-20T10:46:33;6.20;;;5.10;;
60306;SDS011;46155;52.364;6.580;2023-07-20T10:49:06;4.93;;;4.73;;
60306;SDS011;46155;52.364;6.580;2023-07-20T10:54:54;5.13;;;4.93;;
60306;SDS011;46155;52.364;6.580;2023-07-20T10:56:58;5.40;;;5.20;;
60306;SDS011;46155;52.364;6.580;2023-07-20T11:00:07;6.50;;;5.70;;
60306;SDS011;46155;52.364;6.580;2023-07-20T11:02:46;5.50;;;5.00;;
60306;SDS011;46155;52.364;6.580;2023-07-20T11:05:32;5.83;;;5.20;;
60306;SDS011;46155;52.364;6.580;2023-07-20T11:08:06;5.80;;;5.50;;
60306;SDS011;46155;52.364;6.580;2023-07-20T11:10:35;5.40;;;5.10;;
60306;SDS011;46155;52.364;6.580;2023-07-20T11:18:12;5.67;;;5.37;;
60306;SDS011;46155;52.364;6.580;2023-07-20T11:20:38;6.03;;;5.47;;
60306;SDS011;46155;52.364;6.580;2023-07-20T11:23:03;5.67;;;5.33;;
60306;SDS011;46155;52.364;6.580;2023-07-20T11:25:41;5.80;;;5.50;;
60306;SDS011;46155;52.364;6.580;2023-07-20T11:28:07;5.90;;;5.60;;
60306;SDS011;46155;52.364;6.580;2023-07-20T11:30:34;6.27;;;5.87;;
60306;SDS011;46155;52.364;6.580;2023-07-20T11:32:59;6.00;;;5.70;;
60306;SDS011;46155;52.364;6.580;2023-07-20T11:35:25;6.13;;;5.63;;
60306;SDS011;46155;52.364;6.580;2023-07-20T11:37:50;7.03;;;5.57;;
60306;SDS011;46155;52.364;6.580;2023-07-20T11:40:15;5.73;;;5.43;;
60306;SDS011;46155;52.364;6.580;2023-07-20T11:42:41;6.23;;;5.93;;
60306;SDS011;46155;52.364;6.580;2023-07-20T11:45:06;6.53;;;5.93;;
60306;SDS011;46155;52.364;6.580;2023-07-20T11:47:32;6.43;;;6.03;;
60306;SDS011;46155;52.364;6.580;2023-07-20T11:50:02;6.10;;;5.80;;
60306;SDS011;46155;52.364;6.580;2023-07-20T11:52:28;6.57;;;6.20;;
60306;SDS011;46155;52.364;6.580;2023-07-20T11:54:54;6.17;;;5.70;;
60306;SDS011;46155;52.364;6.580;2023-07-20T11:57:20;6.83;;;6.27;;
60306;SDS011;46155;52.364;6.580;2023-07-20T11:59:55;12.00;;;5.73;;
60306;SDS011;46155;52.364;6.580;2023-07-20T12:02:28;6.67;;;6.00;;
60306;SDS011;46155;52.364;6.580;2023-07-20T12:04:54;5.80;;;5.50;;
60306;SDS011;46155;52.364;6.580;2023-07-20T12:07:19;5.90;;;5.60;;
60306;SDS011;46155;52.364;6.580;2023-07-20T12:10:02;6.10;;;5.80;;
60306;SDS011;46155;52.364;6.580;2023-07-20T12:12:40;5.30;;;5.00;;
60306;SDS011;46155;52.364;6.580;2023-07-20T12:17:41;5.70;;;5.40;;
60306;SDS011;46155;52.364;6.580;2023-07-20T12:20:08;5.90;;;5.60;;
60306;SDS011;46155;52.364;6.580;2023-07-20T12:22:38;5.60;;;5.20;;
60306;SDS011;46155;52.364;6.580;2023-07-20T12:25:08;5.53;;;5.23;;
60306;SDS011;46155;52.364;6.580;2023-07-20T12:27:35;5.63;;;5.33;;
60306;SDS011;46155;52.364;6.580;2023-07-20T12:30:02;5.40;;;5.10;;
60306;SDS011;46155;52.364;6.580;2023-07-20T12:32:29;5.73;;;5.37;;
60306;SDS011;46155;52.364;6.580;2023-07-20T12:34:54;5.83;;;5.53;;
60306;SDS011;46155;52.364;6.580;2023-07-20T12:37:20;5.37;;;5.07;;
60306;SDS011;46155;52.364;6.580;2023-07-20T12:39:45;5.70;;;5.20;;
60306;SDS011;46155;52.364;6.580;2023-07-20T12:42:12;5.50;;;5.20;;
60306;SDS011;46155;52.364;6.580;2023-07-20T12:44:40;5.70;;;5.20;;
60306;SDS011;46155;52.364;6.580;2023-07-20T12:47:05;5.57;;;5.10;;
60306;SDS011;46155;52.364;6.580;2023-07-20T12:49:31;5.87;;;5.30;;
60306;SDS011;46155;52.364;6.580;2023-07-20T12:51:56;5.27;;;5.07;;
60306;SDS011;46155;52.364;6.580;2023-07-20T12:54:21;5.60;;;5.30;;
60306;SDS011;46155;52.364;6.580;2023-07-20T12:56:47;5.53;;;5.13;;
60306;SDS011;46155;52.364;6.580;2023-07-20T12:59:12;5.10;;;4.90;;
60306;SDS011;46155;52.364;6.580;2023-07-20T13:01:37;5.50;;;5.20;;
60306;SDS011;46155;52.364;6.580;2023-07-20T13:04:03;5.37;;;5.07;;
60306;SDS011;46155;52.364;6.580;2023-07-20T13:06:28;5.70;;;5.30;;
60306;SDS011;46155;52.364;6.580;2023-07-20T13:08:54;5.80;;;5.30;;
60306;SDS011;46155;52.364;6.580;2023-07-20T13:11:21;6.33;;;5.77;;
60306;SDS011;46155;52.364;6.580;2023-07-20T13:13:47;5.47;;;5.17;;
60306;SDS011;46155;52.364;6.580;2023-07-20T13:16:13;5.07;;;4.67;;
60306;SDS011;46155;52.364;6.580;2023-07-20T13:18:40;5.37;;;5.07;;
60306;SDS011;46155;52.364;6.580;2023-07-20T13:21:05;5.10;;;4.90;;
60306;SDS011;46155;52.364;6.580;2023-07-20T13:23:35;4.67;;;4.47;;
60306;SDS011;46155;52.364;6.580;2023-07-20T13:26:00;5.00;;;4.70;;
60306;SDS011;46155;52.364;6.580;2023-07-20T13:28:25;5.50;;;5.20;;
60306;SDS011;46155;52.364;6.580;2023-07-20T13:30:51;4.93;;;4.63;;
60306;SDS011;46155;52.364;6.580;2023-07-20T13:33:17;4.60;;;4.37;;
60306;SDS011;46155;52.364;6.580;2023-07-20T13:35:42;4.50;;;4.30;;
60306;SDS011;46155;52.364;6.580;2023-07-20T13:38:08;5.20;;;4.80;;
60306;SDS011;46155;52.364;6.580;2023-07-20T13:40:33;5.37;;;5.07;;
60306;SDS011;46155;52.364;6.580;2023-07-20T13:42:58;5.53;;;5.17;;
60306;SDS011;46155;52.364;6.580;2023-07-20T13:45:24;5.30;;;4.80;;
60306;SDS011;46155;52.364;6.580;2023-07-20T13:47:49;5.27;;;5.03;;
60306;SDS011;46155;52.364;6.580;2023-07-20T13:50:14;5.50;;;5.20;;
60306;SDS011;46155;52.364;6.580;2023-07-20T13:52:40;5.10;;;4.80;;
60306;SDS011;46155;52.364;6.580;2023-07-20T13:55:05;6.10;;;5.50;;
60306;SDS011;46155;52.364;6.580;2023-07-20T13:57:31;5.90;;;5.50;;
60306;SDS011;46155;52.364;6.580;2023-07-20T13:59:57;5.40;;;5.07;;
60306;SDS011;46155;52.364;6.580;2023-07-20T14:02:23;5.37;;;5.07;;
60306;SDS011;46155;52.364;6.580;2023-07-20T14:04:48;6.40;;;5.33;;
60306;SDS011;46155;52.364;6.580;2023-07-20T14:07:14;5.20;;;4.80;;
60306;SDS011;46155;52.364;6.580;2023-07-20T14:09:39;5.47;;;5.17;;
60306;SDS011;46155;52.364;6.580;2023-07-20T14:12:04;5.50;;;5.10;;
60306;SDS011;46155;52.364;6.580;2023-07-20T14:14:30;6.30;;;5.90;;
60306;SDS011;46155;52.364;6.580;2023-07-20T14:16:56;6.00;;;5.47;;
60306;SDS011;46155;52.364;6.580;2023-07-20T14:19:21;5.77;;;5.43;;
60306;SDS011;46155;52.364;6.580;2023-07-20T14:21:47;5.40;;;5.10;;
60306;SDS011;46155;52.364;6.580;2023-07-20T14:24:12;5.63;;;5.00;;
60306;SDS011;46155;52.364;6.580;2023-07-20T14:26:38;5.90;;;5.50;;
60306;SDS011;46155;52.364;6.580;2023-07-20T14:29:03;5.97;;;5.50;;
60306;SDS011;46155;52.364;6.580;2023-07-20T14:31:28;5.63;;;5.23;;
60306;SDS011;46155;52.364;6.580;2023-07-20T14:33:54;5.37;;;5.07;;
60306;SDS011;46155;52.364;6.580;2023-07-20T14:36:19;5.83;;;5.47;;
60306;SDS011;46155;52.364;6.580;2023-07-20T14:38:45;5.30;;;5.00;;
60306;SDS011;46155;52.364;6.580;2023-07-20T14:41:11;5.37;;;5.07;;
60306;SDS011;46155;52.364;6.580;2023-07-20T14:43:37;5.83;;;5.33;;
60306;SDS011;46155;52.364;6.580;2023-07-20T14:46:03;5.30;;;4.80;;
60306;SDS011;46155;52.364;6.580;2023-07-20T14:48:28;5.57;;;5.07;;
60306;SDS011;46155;52.364;6.580;2023-07-20T14:50:54;5.30;;;5.00;;
60306;SDS011;46155;52.364;6.580;2023-07-20T14:53:19;5.33;;;5.03;;
60306;SDS011;46155;52.364;6.580;2023-07-20T14:55:45;5.20;;;4.80;;
60306;SDS011;46155;52.364;6.580;2023-07-20T14:58:10;5.57;;;5.10;;
60306;SDS011;46155;52.364;6.580;2023-07-20T15:00:36;5.00;;;4.70;;
60306;SDS011;46155;52.364;6.580;2023-07-20T15:03:02;5.00;;;4.80;;
60306;SDS011;46155;52.364;6.580;2023-07-20T15:05:27;5.23;;;4.83;;
60306;SDS011;46155;52.364;6.580;2023-07-20T15:07:53;5.17;;;4.80;;
60306;SDS011;46155;52.364;6.580;2023-07-20T15:10:19;5.27;;;4.97;;
60306;SDS011;46155;52.364;6.580;2023-07-20T15:12:44;4.90;;;4.70;;
60306;SDS011;46155;52.364;6.580;2023-07-20T15:15:11;4.80;;;4.40;;
60306;SDS011;46155;52.364;6.580;2023-07-20T15:17:38;5.27;;;5.03;;
60306;SDS011;46155;52.364;6.580;2023-07-20T15:20:05;5.03;;;4.73;;
60306;SDS011;46155;52.364;6.580;2023-07-20T15:22:32;4.87;;;4.67;;
60306;SDS011;46155;52.364;6.580;2023-07-20T15:24:58;5.60;;;5.20;;
60306;SDS011;46155;52.364;6.580;2023-07-20T15:27:24;5.43;;;5.17;;
60306;SDS011;46155;52.364;6.580;2023-07-20T15:29:49;5.30;;;5.00;;
60306;SDS011;46155;52.364;6.580;2023-07-20T15:32:15;5.50;;;5.20;;
60306;SDS011;46155;52.364;6.580;2023-07-20T15:34:42;5.53;;;5.27;;
60306;SDS011;46155;52.364;6.580;2023-07-20T15:37:08;5.30;;;4.80;;
60306;SDS011;46155;52.364;6.580;2023-07-20T15:39:35;5.13;;;4.83;;
60306;SDS011;46155;52.364;6.580;2023-07-20T15:42:00;5.23;;;5.00;;
60306;SDS011;46155;52.364;6.580;2023-07-20T15:44:26;4.93;;;4.73;;
60306;SDS011;46155;52.364;6.580;2023-07-20T15:46:51;5.07;;;4.77;;
60306;SDS011;46155;52.364;6.580;2023-07-20T15:49:17;5.20;;;4.90;;
60306;SDS011;46155;52.364;6.580;2023-07-20T15:51:42;4.90;;;4.63;;
60306;SDS011;46155;52.364;6.580;2023-07-20T15:54:11;5.30;;;5.00;;
60306;SDS011;46155;52.364;6.580;2023-07-20T15:56:38;5.07;;;4.67;;
60306;SDS011;46155;52.364;6.580;2023-07-20T15:59:04;4.60;;;4.40;;
60306;SDS011;46155;52.364;6.580;2023-07-20T16:01:30;5.13;;;4.80;;
60306;SDS011;46155;52.364;6.580;2023-07-20T16:03:59;5.20;;;4.90;;
60306;SDS011;46155;52.364;6.580;2023-07-20T16:06:25;4.50;;;4.30;;
60306;SDS011;46155;52.364;6.580;2023-07-20T16:08:51;5.37;;;5.07;;
60306;SDS011;46155;52.364;6.580;2023-07-20T16:11:16;5.13;;;4.83;;
60306;SDS011;46155;52.364;6.580;2023-07-20T16:13:42;5.43;;;5.03;;
60306;SDS011;46155;52.364;6.580;2023-07-20T16:16:09;5.40;;;4.90;;
60306;SDS011;46155;52.364;6.580;2023-07-20T16:18:35;5.53;;;5.07;;
60306;SDS011;46155;52.364;6.580;2023-07-20T16:21:00;4.80;;;4.60;;
60306;SDS011;46155;52.364;6.580;2023-07-20T16:23:26;5.63;;;5.33;;
60306;SDS011;46155;52.364;6.580;2023-07-20T16:25:51;5.30;;;4.53;;
60306;SDS011;46155;52.364;6.580;2023-07-20T16:28:17;4.87;;;4.60;;
60306;SDS011;46155;52.364;6.580;2023-07-20T16:30:42;5.57;;;5.17;;
60306;SDS011;46155;52.364;6.580;2023-07-20T16:33:08;4.90;;;4.70;;
60306;SDS011;46155;52.364;6.580;2023-07-20T16:35:39;4.67;;;4.37;;
60306;SDS011;46155;52.364;6.580;2023-07-20T16:38:05;5.50;;;5.03;;
60306;SDS011;46155;52.364;6.580;2023-07-20T16:40:31;5.00;;;4.80;;
60306;SDS011;46155;52.364;6.580;2023-07-20T16:42:56;5.30;;;5.00;;
60306;SDS011;46155;52.364;6.580;2023-07-20T16:45:22;4.83;;;4.57;;
60306;SDS011;46155;52.364;6.580;2023-07-20T16:47:47;5.33;;;4.87;;
60306;SDS011;46155;52.364;6.580;2023-07-20T16:50:13;5.17;;;4.67;;
60306;SDS011;46155;52.364;6.580;2023-07-20T16:52:38;5.23;;;4.93;;
60306;SDS011;46155;52.364;6.580;2023-07-20T16:55:04;5.03;;;4.83;;
60306;SDS011;46155;52.364;6.580;2023-07-20T16:57:29;5.13;;;4.80;;
60306;SDS011;46155;52.364;6.580;2023-07-20T16:59:55;5.13;;;4.73;;
60306;SDS011;46155;52.364;6.580;2023-07-20T17:02:20;4.97;;;4.70;;
60306;SDS011;46155;52.364;6.580;2023-07-20T17:04:49;5.83;;;5.17;;
60306;SDS011;46155;52.364;6.580;2023-07-20T17:07:14;4.70;;;4.50;;
60306;SDS011;46155;52.364;6.580;2023-07-20T17:09:40;5.33;;;4.90;;
60306;SDS011;46155;52.364;6.580;2023-07-20T17:12:06;5.17;;;4.97;;
60306;SDS011;46155;52.364;6.580;2023-07-20T17:14:32;5.80;;;5.50;;
60306;SDS011;46155;52.364;6.580;2023-07-20T17:16:59;5.30;;;5.00;;
60306;SDS011;46155;52.364;6.580;2023-07-20T17:19:24;5.30;;;5.00;;
60306;SDS011;46155;52.364;6.580;2023-07-20T17:21:50;4.87;;;4.67;;
60306;SDS011;46155;52.364;6.580;2023-07-20T17:24:15;4.47;;;4.23;;
60306;SDS011;46155;52.364;6.580;2023-07-20T17:26:41;5.83;;;5.20;;
60306;SDS011;46155;52.364;6.580;2023-07-20T17:29:06;4.60;;;4.37;;
60306;SDS011;46155;52.364;6.580;2023-07-20T17:31:32;5.50;;;5.20;;
60306;SDS011;46155;52.364;6.580;2023-07-20T17:33:58;5.03;;;4.70;;
60306;SDS011;46155;52.364;6.580;2023-07-20T17:36:24;4.97;;;4.77;;
60306;SDS011;46155;52.364;6.580;2023-07-20T17:38:50;5.23;;;4.93;;
60306;SDS011;46155;52.364;6.580;2023-07-20T17:41:15;5.63;;;5.33;;
60306;SDS011;46155;52.364;6.580;2023-07-20T17:43:40;5.33;;;5.03;;
60306;SDS011;46155;52.364;6.580;2023-07-20T17:46:06;5.17;;;4.87;;
60306;SDS011;46155;52.364;6.580;2023-07-20T17:48:34;5.57;;;5.27;;
60306;SDS011;46155;52.364;6.580;2023-07-20T17:51:00;5.60;;;5.20;;